As Suwayq — V7XU8 — position and weather

sailwx.info

Track history (hours):
 
Tides and Currents Weather Stations Pressure Air Temp Water Temp Dewpoint Dewpoint Depression Visibility Wind Speed Wind Dir Waves Ship Positions

As Suwayq

Last reported at 2017-Apr-06 07:14 UTC. Time now 2017-Apr-27 14:54 UTC.
Position N 01°55' E 102°18'.
Warning: this ship's position is 21 days out of date.

Length 333 m; draft 11.3 m.

Type: Tanker. MMSI: 538004576.

Date/timePositionNaut miles runAvg speedWind from/ knotsBaromVisibWave heightAir tempDewpointWater temp
2017-Apr-06 07:14N 01°55' E 102°18'312.6
2017-Apr-06 06:58N 01°54' E 102°21'612.7
2017-Apr-06 06:30N 01°51' E 102°26'613.0
2017-Apr-06 06:00N 01°48' E 102°32'1413.2
2017-Apr-06 04:56N 01°42' E 102°45'4614.4
2017-Apr-06 01:43N 01°15' E 103°23'415.0
2017-Apr-06 01:27N 01°14' E 103°26'714.6
2017-Apr-06 01:00N 01°12' E 103°33'612.8
2017-Apr-06 00:31N 01°11' E 103°39'2 4.5
2017-Apr-06 00:00N 01°10' E 103°41'2 3.6
2017-Apr-05 23:30N 01°09' E 103°43'2 3.5
2017-Apr-05 23:00N 01°08' E 103°44'4 8.4
2017-Apr-05 22:31N 01°10' E 103°48'611.1
2017-Apr-05 22:00N 01°13' E 103°53'611.2
2017-Apr-05 21:30N 01°15' E 103°58'  
2017-Mar-29 04:14N 34°46' E 129°10'1313.1
2017-Mar-29 03:14N 34°58' E 129°17'  
Track history (hours):
 
Tides and Currents Weather Stations Pressure Air Temp Water Temp Dewpoint Dewpoint Depression Visibility Wind Speed Wind Dir Waves Ship Positions

As Suwayq

Last reported at 2017-Apr-06 07:14 UTC. Time now 2017-Apr-27 14:54 UTC.
Position N 01°55' E 102°18'.
Warning: this ship's position is 21 days out of date.

Length 333 m; draft 11.3 m.

Type: Tanker. MMSI: 538004576.

Date/timePositionNaut miles runAvg speedWind from/ knotsBaromVisibWave heightAir tempDewpointWater temp
2017-Apr-06 07:14N 01°55' E 102°18'312.6
2017-Apr-06 06:58N 01°54' E 102°21'612.7
2017-Apr-06 06:30N 01°51' E 102°26'613.0
2017-Apr-06 06:00N 01°48' E 102°32'1413.2
2017-Apr-06 04:56N 01°42' E 102°45'4614.4
2017-Apr-06 01:43N 01°15' E 103°23'415.0
2017-Apr-06 01:27N 01°14' E 103°26'714.6
2017-Apr-06 01:00N 01°12' E 103°33'612.8
2017-Apr-06 00:31N 01°11' E 103°39'2 4.5
2017-Apr-06 00:00N 01°10' E 103°41'2 3.6
2017-Apr-05 23:30N 01°09' E 103°43'2 3.5
2017-Apr-05 23:00N 01°08' E 103°44'4 8.4
2017-Apr-05 22:31N 01°10' E 103°48'611.1
2017-Apr-05 22:00N 01°13' E 103°53'611.2
2017-Apr-05 21:30N 01°15' E 103°58'  
2017-Mar-29 04:14N 34°46' E 129°10'1313.1
2017-Mar-29 03:14N 34°58' E 129°17'  

Dump ship's entire track history